Time;durP1;ratioP1;P1;durP2;ratioP2;P2;SDS_P1;SDS_P2;PMS_P1;PMS_P2;Temp;Humidity;BMP_temperature;BMP_pressure;BME280_temperature;BME280_humidity;BME280_pressure;Samples;Min_cycle;Max_cycle;Signal;HPM_P1;HPM_P2
2022/09/25 00:02:30;;;;;;;7.82;5.53;;;;;;;16.00;80.32;100509.69;4943905;29;20046;-82
2022/09/25 00:05:15;;;;;;;6.53;5.28;;;;;;;16.18;78.97;100517.16;4946852;29;20075;-81
2022/09/25 00:08:00;;;;;;;8.50;5.55;;;;;;;16.16;78.97;100511.22;4945424;29;20522;-83
2022/09/25 00:10:50;;;;;;;7.25;4.82;;;;;;;16.00;79.65;100521.44;4952295;29;20091;-83
2022/09/25 00:13:35;;;;;;;7.75;5.82;;;;;;;15.88;79.46;100510.59;4948995;29;20051;-83
2022/09/25 00:16:24;;;;;;;7.88;5.70;;;;;;;15.94;79.70;100505.63;4948090;29;20063;-83
2022/09/25 00:22:26;;;;;;;11.15;5.47;;;;;;;16.01;80.37;100519.50;4947894;29;20059;-83
2022/09/25 00:25:13;;;;;;;11.43;6.10;;;;;;;15.94;80.15;100513.84;4948055;29;20047;-83
2022/09/25 00:27:58;;;;;;;10.30;6.10;;;;;;;16.01;79.57;100511.25;4948151;29;20047;-83
2022/09/25 00:30:43;;;;;;;8.70;6.07;;;;;;;15.86;79.78;100503.84;4946724;29;20040;-83
2022/09/25 00:33:28;;;;;;;8.77;5.47;;;;;;;15.98;79.02;100499.06;4946722;29;20059;-83
2022/09/25 00:36:12;;;;;;;;;;;;;;;16.14;79.01;100499.84;4948756;29;20050;-84
2022/09/25 00:38:57;;;;;;;7.95;5.65;;;;;;;16.22;78.84;100487.84;4943468;29;19918;-82
2022/09/25 00:41:42;;;;;;;;;;;;;;;16.34;78.11;100502.63;4944711;29;20054;-84
2022/09/25 00:44:45;;;;;;;6.55;5.05;;;;;;;16.40;78.08;100495.69;4945525;29;19914;-82
2022/09/25 00:47:53;;;;;;;7.35;5.30;;;;;;;16.33;78.60;100485.34;4945257;29;20047;-83
2022/09/25 00:50:49;;;;;;;8.60;6.30;;;;;;;15.91;81.73;100470.69;4943806;29;20055;-83
2022/09/25 00:53:39;;;;;;;8.40;6.20;;;;;;;15.81;82.53;100464.59;4945255;29;20054;-83
2022/09/25 00:56:25;;;;;;;9.75;6.25;;;;;;;15.75;83.42;100460.53;4936081;29;20106;-83
2022/09/25 00:59:15;;;;;;;9.80;6.72;;;;;;;15.83;82.93;100462.31;4942957;29;20567;-83
2022/09/25 01:02:00;;;;;;;6.43;5.43;;;;;;;15.80;81.65;100457.50;4946305;29;20114;-83
2022/09/25 01:04:46;;;;;;;14.07;6.00;;;;;;;15.65;83.29;100454.78;4945551;29;20055;-83
2022/09/25 01:07:35;;;;;;;14.18;6.88;;;;;;;15.69;84.00;100459.22;4944238;29;20052;-81
2022/09/25 01:10:20;;;;;;;9.55;6.47;;;;;;;15.51;84.88;100451.69;4939740;29;20043;-82
2022/09/25 01:13:05;;;;;;;7.97;6.28;;;;;;;15.79;83.52;100455.94;4940410;29;20043;-83
2022/09/25 01:15:56;;;;;;;;;;;;;;;15.81;82.38;100453.63;4949523;29;20533;-81
2022/09/25 01:19:00;;;;;;;7.50;5.78;;;;;;;15.69;82.92;100452.94;4944975;29;19915;-84
2022/09/25 01:22:02;;;;;;;8.38;6.50;;;;;;;15.70;82.43;100451.78;4947895;29;20054;-84
2022/09/25 01:25:14;;;;;;;8.02;6.60;;;;;;;15.64;82.95;100453.22;4947117;29;20051;-86
2022/09/25 01:28:28;;;;;;;11.35;7.05;;;;;;;15.55;83.92;100442.41;4948809;29;20054;-85
2022/09/25 01:31:20;;;;;;;11.10;6.82;;;;;;;15.69;83.51;100433.75;4946053;29;20043;-85
2022/09/25 01:34:17;;;;;;;10.52;6.63;;;;;;;15.85;82.71;100433.72;4950586;29;20046;-84
2022/09/25 01:37:23;;;;;;;10.95;6.80;;;;;;;15.82;81.81;100432.50;4951252;29;20046;-83
2022/09/25 01:40:20;;;;;;;9.00;6.15;;;;;;;15.90;81.31;100423.25;4946242;29;20051;-83
2022/09/25 01:43:15;;;;;;;7.78;6.22;;;;;;;15.82;80.86;100425.06;4946607;29;20054;-83
2022/09/25 01:46:05;;;;;;;8.90;7.30;;;;;;;15.68;81.48;100415.72;4959615;28;20051;-84
2022/09/25 01:48:56;;;;;;;8.10;7.25;;;;;;;15.74;81.79;100417.03;4946596;29;20054;-84
2022/09/25 01:51:47;;;;;;;8.88;7.43;;;;;;;15.68;82.00;100418.47;4940687;29;20503;-84
2022/09/25 01:54:35;;;;;;;8.93;7.63;;;;;;;15.65;82.02;100417.22;4945758;29;20043;-84
2022/09/25 01:57:30;;;;;;;9.25;7.43;;;;;;;15.68;81.08;100421.19;4943551;29;20059;-83
2022/09/25 02:00:20;;;;;;;10.60;8.57;;;;;;;15.59;82.08;100401.41;4942537;29;20526;-84
2022/09/25 02:03:21;;;;;;;9.77;7.53;;;;;;;15.51;83.35;100405.09;4952260;29;20185;-84
2022/09/25 02:06:09;;;;;;;10.88;8.10;;;;;;;15.52;83.52;100403.97;4948542;29;20067;-84
2022/09/25 02:08:55;;;;;;;12.48;8.70;;;;;;;15.50;84.38;100409.78;4951469;29;20062;-85
2022/09/25 02:11:46;;;;;;;10.50;8.52;;;;;;;15.45;84.08;100395.53;4948085;29;20051;-85
2022/09/25 02:14:47;;;;;;;12.00;9.82;;;;;;;15.54;83.71;100397.00;4945936;29;20050;-85
2022/09/25 02:21:14;;;;;;;14.65;8.38;;;;;;;15.60;83.34;100395.56;4964504;28;20051;-85
2022/09/25 02:24:37;;;;;;;13.40;9.82;;;;;;;15.58;83.19;100388.84;4949939;29;20051;-83
2022/09/25 02:27:26;;;;;;;10.70;8.63;;;;;;;15.37;84.91;100386.38;4949184;29;20059;-83
2022/09/25 02:30:11;;;;;;;11.43;8.65;;;;;;;15.30;84.60;100395.22;4948605;29;20055;-82
2022/09/25 02:32:56;;;;;;;11.18;8.23;;;;;;;15.41;83.22;100390.78;4948596;29;20058;-84
2022/09/25 02:35:41;;;;;;;14.38;9.30;;;;;;;15.52;82.43;100387.53;4947912;29;20055;-83
2022/09/25 02:38:28;;;;;;;9.80;8.15;;;;;;;15.58;81.79;100391.59;4945916;29;20050;-84
2022/09/25 02:41:39;;;;;;;10.45;7.68;;;;;;;15.55;81.83;100400.50;4946510;29;20042;-84
2022/09/25 02:44:30;;;;;;;13.85;8.77;;;;;;;15.47;82.36;100405.00;4947174;29;20050;-83
2022/09/25 02:47:54;;;;;;;11.98;9.13;;;;;;;15.45;81.52;100396.34;4945881;29;20043;-82
2022/09/25 02:50:55;;;;;;;11.60;8.25;;;;;;;15.41;81.82;100387.25;4942374;29;20047;-84
2022/09/25 02:53:47;;;;;;;11.50;8.48;;;;;;;15.28;82.40;100392.06;4941960;29;20040;-83
2022/09/25 02:56:45;;;;;;;12.15;8.25;;;;;;;15.25;82.26;100394.69;4941269;29;20051;-85
2022/09/25 02:59:48;;;;;;;9.98;8.10;;;;;;;15.31;82.45;100385.84;4950006;29;20051;-84
2022/09/25 03:02:36;;;;;;;10.75;8.45;;;;;;;15.28;82.81;100386.56;4947897;29;20051;-84
2022/09/25 03:05:23;;;;;;;11.57;9.10;;;;;;;15.46;82.46;100392.47;4943322;29;20415;-85
2022/09/25 03:11:18;;;;;;;13.60;10.13;;;;;;;15.48;82.20;100400.34;4927979;29;20055;-84
2022/09/25 03:14:03;;;;;;;15.52;10.10;;;;;;;15.51;81.86;100392.22;4942406;29;20048;-84
2022/09/25 03:16:55;;;;;;;;;;;;;;;15.47;82.58;100390.50;4930106;29;20043;-84
2022/09/25 03:19:40;;;;;;;14.60;11.65;;;;;;;15.19;83.45;100388.66;4934693;29;19919;-84
2022/09/25 03:22:24;;;;;;;20.90;11.48;;;;;;;15.30;83.01;100381.50;4946854;29;20613;-85
2022/09/25 03:25:09;;;;;;;16.15;10.93;;;;;;;15.48;82.37;100392.91;4948643;29;20418;-83
2022/09/25 03:27:53;;;;;;;12.18;10.45;;;;;;;15.43;82.29;100386.91;4944545;29;20048;-83
2022/09/25 03:30:39;;;;;;;12.77;10.98;;;;;;;15.35;82.83;100383.97;4962731;28;20051;-83
2022/09/25 03:33:26;;;;;;;17.77;10.80;;;;;;;15.35;83.02;100388.66;4946792;29;20051;-84
2022/09/25 03:36:15;;;;;;;13.55;11.77;;;;;;;15.24;83.89;100384.88;4946339;29;20051;-84
2022/09/25 03:39:00;;;;;;;15.68;12.50;;;;;;;15.15;84.40;100384.25;4950847;29;20047;-84
2022/09/25 03:41:46;;;;;;;15.95;11.07;;;;;;;15.24;84.37;100387.59;4948172;29;20048;-83
2022/09/25 03:44:31;;;;;;;17.38;12.30;;;;;;;15.22;84.91;100393.47;4948368;29;20051;-82
2022/09/25 03:47:16;;;;;;;16.17;12.25;;;;;;;15.18;85.71;100395.31;4951759;29;20043;-84
2022/09/25 03:50:00;;;;;;;12.48;9.82;;;;;;;15.19;85.80;100399.63;4951153;29;20052;-84
2022/09/25 03:52:45;;;;;;;16.15;13.35;;;;;;;15.27;85.72;100406.88;4945624;29;20059;-85
2022/09/25 03:55:30;;;;;;;14.68;12.55;;;;;;;15.23;85.67;100407.97;4939702;29;20043;-85
2022/09/25 03:58:15;;;;;;;17.00;12.68;;;;;;;15.24;86.13;100424.00;4945901;29;20424;-83
2022/09/25 04:01:00;;;;;;;20.10;14.30;;;;;;;15.23;85.93;100410.69;4965512;28;20054;-84
2022/09/25 04:03:46;;;;;;;;;;;;;;;15.16;86.36;100410.50;4958071;29;20044;-85
2022/09/25 04:06:30;;;;;;;15.00;10.93;;;;;;;15.15;86.95;100403.44;4947249;29;19922;-83
2022/09/25 04:09:15;;;;;;;;;;;;;;;15.31;86.52;100399.53;4940211;29;20036;-83
2022/09/25 04:12:00;;;;;;;18.58;14.30;;;;;;;15.21;86.44;100397.34;4939625;29;20406;-83
2022/09/25 04:14:45;;;;;;;19.73;14.95;;;;;;;15.21;86.44;100400.09;4928357;29;20063;-84
2022/09/25 04:17:30;;;;;;;;;;;;;;;15.24;85.57;100399.34;4940349;29;20043;-84
2022/09/25 04:20:15;;;;;;;16.42;12.82;;;;;;;15.11;86.03;100386.91;4943245;29;19915;-85
2022/09/25 04:23:00;;;;;;;;;;;;;;;15.19;86.04;100396.09;4945788;29;20665;-85
2022/09/25 04:25:45;;;;;;;20.38;14.30;;;;;;;15.18;86.82;100381.63;4947728;29;19918;-84
2022/09/25 04:28:31;;;;;;;;;;;;;;;15.18;87.76;100387.09;4942819;29;20039;-85
2022/09/25 04:31:16;;;;;;;16.05;14.25;;;;;;;15.26;87.52;100396.28;4941055;29;20310;-83
2022/09/25 04:34:01;;;;;;;20.67;15.02;;;;;;;15.22;87.69;100401.69;4923718;29;20048;-85
2022/09/25 04:36:46;;;;;;;;;;;;;;;15.46;87.53;100399.88;4932866;29;20051;-85
2022/09/25 04:39:31;;;;;;;18.90;15.35;;;;;;;15.48;87.12;100397.59;4945131;29;19915;-85
2022/09/25 04:42:15;;;;;;;20.80;16.42;;;;;;;15.50;87.53;100404.28;4943115;29;20051;-85
2022/09/25 04:45:00;;;;;;;20.35;14.40;;;;;;;15.52;87.07;100393.00;4952747;29;20047;-84
2022/09/25 04:47:45;;;;;;;;;;;;;;;15.53;87.26;100387.19;4947361;29;20508;-84
2022/09/25 04:50:30;;;;;;;22.55;15.85;;;;;;;15.47;87.31;100388.56;4937999;29;19915;-83
2022/09/25 04:53:19;;;;;;;22.80;16.75;;;;;;;15.34;88.32;100390.59;4944265;29;20043;-84
2022/09/25 04:56:06;;;;;;;;;;;;;;;15.35;88.32;100383.19;4952910;29;20047;-85
2022/09/25 04:58:51;;;;;;;20.38;16.83;;;;;;;15.26;88.79;100382.59;4948734;29;19915;-83
2022/09/25 05:01:37;;;;;;;;;;;;;;;15.33;89.05;100388.25;4947032;29;20511;-83
2022/09/25 05:04:22;;;;;;;21.80;13.65;;;;;;;15.20;89.80;100384.78;4950361;29;19915;-84
2022/09/25 05:07:07;;;;;;;26.60;18.05;;;;;;;15.17;89.83;100391.00;4949921;29;20051;-85
2022/09/25 05:09:52;;;;;;;22.42;16.45;;;;;;;15.09;90.43;100393.88;4947170;29;20047;-84
2022/09/25 05:12:36;;;;;;;31.20;21.25;;;;;;;15.16;89.83;100394.88;4950892;29;20040;-83
2022/09/25 05:15:21;;;;;;;25.90;16.60;;;;;;;15.12;89.87;100398.66;4955777;28;20555;-84
2022/09/25 05:18:26;;;;;;;27.58;21.88;;;;;;;15.19;89.94;100387.88;4944506;29;20016;-83
2022/09/25 05:21:11;;;;;;;31.73;24.15;;;;;;;15.16;90.32;100396.81;4938759;29;20051;-80
2022/09/25 05:23:56;;;;;;;;;;;;;;;15.24;90.47;100395.81;4942660;29;20048;-82
2022/09/25 05:26:40;;;;;;;33.58;25.02;;;;;;;15.40;89.25;100399.34;4944411;29;19915;-79
2022/09/25 05:29:25;;;;;;;35.30;25.70;;;;;;;15.33;90.17;100410.16;4940624;29;20036;-82
2022/09/25 05:32:10;;;;;;;36.10;26.45;;;;;;;15.41;89.32;100409.16;4943296;29;20048;-81
2022/09/25 05:34:54;;;;;;;37.47;27.73;;;;;;;15.32;90.13;100405.81;4941988;29;20047;-85
2022/09/25 05:37:39;;;;;;;32.70;25.25;;;;;;;15.41;90.00;100412.72;4970118;23;20043;-77
2022/09/25 05:40:24;;;;;;;32.55;25.77;;;;;;;15.55;88.89;100408.72;5002037;28;20041;-78
2022/09/25 05:43:11;;;;;;;32.65;26.30;;;;;;;15.49;88.83;100391.75;5008467;28;20033;-75
2022/09/25 05:45:57;;;;;;;34.75;25.55;;;;;;;15.54;89.37;100382.50;5007942;28;20054;-75
2022/09/25 05:48:42;;;;;;;30.73;25.02;;;;;;;15.61;88.69;100377.16;4999677;28;20042;-76
2022/09/25 05:51:27;;;;;;;29.80;24.10;;;;;;;15.69;88.12;100379.72;4987679;28;20042;-78
2022/09/25 05:54:12;;;;;;;;;;;;;;;15.82;86.93;100380.38;4988667;28;20042;-78
2022/09/25 05:56:56;;;;;;;31.70;24.13;;;;;;;15.80;86.15;100371.72;4982361;28;19914;-78
2022/09/25 05:59:41;;;;;;;26.55;21.23;;;;;;;15.96;85.76;100364.25;4989049;28;20653;-78
2022/09/25 06:02:26;;;;;;;18.98;15.48;;;;;;;16.03;85.64;100372.63;4986965;28;20561;-77
2022/09/25 06:05:11;;;;;;;;;;;;;;;15.97;86.39;100365.84;4985472;28;20043;-76
2022/09/25 06:07:55;;;;;;;24.83;19.95;;;;;;;16.02;86.17;100370.22;4990474;28;20389;-80
2022/09/25 06:10:41;;;;;;;28.60;22.92;;;;;;;16.05;85.26;100380.50;4994230;28;20046;-79
2022/09/25 06:13:26;;;;;;;33.10;24.20;;;;;;;16.16;84.42;100382.28;4987015;28;20046;-77
2022/09/25 06:16:13;;;;;;;;;;;;;;;16.26;84.36;100378.19;4987780;28;20046;-77
2022/09/25 06:18:58;;;;;;;33.75;22.35;;;;;;;16.32;84.35;100384.16;5008473;28;19914;-78
2022/09/25 06:21:43;;;;;;;28.50;22.88;;;;;;;16.43;82.57;100379.69;4993573;28;20042;-79
2022/09/25 06:24:28;;;;;;;31.02;23.73;;;;;;;16.43;82.67;100383.22;4996507;28;20042;-79
2022/09/25 06:27:12;;;;;;;31.63;24.23;;;;;;;16.48;82.07;100384.88;4991960;28;20042;-80
2022/09/25 06:29:57;;;;;;;25.55;20.02;;;;;;;16.55;81.57;100382.28;4974740;28;20058;-80
2022/09/25 06:32:41;;;;;;;30.65;23.00;;;;;;;16.66;79.94;100384.09;5001025;28;20042;-82
2022/09/25 06:35:30;;;;;;;27.95;22.10;;;;;;;16.57;80.15;100385.44;4999071;28;20039;-81
2022/09/25 06:38:16;;;;;;;28.98;21.10;;;;;;;16.54;80.65;100380.69;4982362;28;20046;-83
2022/09/25 06:41:00;;;;;;;29.17;21.95;;;;;;;16.51;80.25;100379.47;4982876;28;20042;-80
2022/09/25 06:43:50;;;;;;;27.65;21.48;;;;;;;16.63;79.96;100375.78;4995880;28;20042;-80
2022/09/25 06:46:35;;;;;;;29.70;22.13;;;;;;;16.48;80.57;100376.66;4991543;28;20042;-77
2022/09/25 06:49:20;;;;;;;;;;;;;;;16.53;80.11;100371.66;4991429;28;20410;-78
2022/09/25 06:52:05;;;;;;;27.65;21.40;;;;;;;16.48;80.34;100371.97;4983205;28;19914;-77
2022/09/25 06:54:50;;;;;;;26.67;21.90;;;;;;;16.40;80.73;100370.25;4993266;28;20537;-77
2022/09/25 06:57:36;;;;;;;22.50;16.95;;;;;;;16.50;80.78;100380.63;4994129;28;20042;-78
2022/09/25 07:00:21;;;;;;;32.95;21.25;;;;;;;16.64;80.10;100371.91;4987732;28;20038;-78
2022/09/25 07:06:12;;;;;;;33.85;21.65;;;;;;;16.98;78.66;100383.88;4987732;28;20405;-78
2022/09/25 07:08:57;;;;;;;23.27;19.58;;;;;;;17.06;78.31;100371.88;4988992;28;20050;-79
2022/09/25 07:11:42;;;;;;;;;;;;;;;17.16;77.34;100384.19;4980781;28;20046;-76
2022/09/25 07:14:27;;;;;;;36.85;11.98;;;;;;;17.81;75.61;100385.63;4997066;28;19918;-86
2022/09/25 07:17:13;;;;;;;64.15;23.10;;;;;;;18.44;72.66;100373.81;4974701;28;20038;-86
2022/09/25 07:19:58;;;;;;;30.17;17.20;;;;;;;18.83;70.53;100382.53;4992581;28;20042;-86
2022/09/25 07:22:42;;;;;;;24.52;16.77;;;;;;;18.96;69.29;100380.28;4988316;28;20501;-82
2022/09/25 07:25:30;;;;;;;24.20;16.73;;;;;;;19.13;68.04;100374.13;4980245;28;20046;-83
2022/09/25 07:28:18;;;;;;;25.10;14.60;;;;;;;19.53;66.69;100373.28;4985648;28;20042;-82
2022/09/25 07:31:18;;;;;;;19.00;13.45;;;;;;;20.00;64.25;100373.19;4993741;28;20746;-83
2022/09/25 07:34:08;;;;;;;19.05;12.95;;;;;;;20.18;62.45;100372.44;4982821;28;20043;-83
2022/09/25 07:36:54;;;;;;;16.42;12.68;;;;;;;20.51;61.90;100365.91;4992285;28;20043;-84
2022/09/25 07:39:43;;;;;;;16.10;11.45;;;;;;;20.56;60.79;100376.56;4977144;28;20513;-83
2022/09/25 07:42:28;;;;;;;14.77;10.80;;;;;;;20.33;60.74;100385.97;4996225;28;20038;-83
2022/09/25 07:45:13;;;;;;;18.05;9.90;;;;;;;20.46;60.02;100378.13;4998627;28;20068;-84
2022/09/25 07:48:00;;;;;;;14.98;9.82;;;;;;;20.47;59.91;100383.25;5007098;28;20285;-84
2022/09/25 07:50:44;;;;;;;10.82;9.23;;;;;;;20.30;60.47;100386.72;4990585;28;20046;-86
2022/09/25 07:53:29;;;;;;;12.18;8.80;;;;;;;20.61;58.87;100390.00;4979690;28;20123;-83
2022/09/25 07:56:16;;;;;;;13.20;10.07;;;;;;;20.88;58.88;100400.31;4989209;28;20046;-78
2022/09/25 07:59:01;;;;;;;14.85;10.80;;;;;;;20.21;59.97;100394.56;4986936;28;20039;-81
2022/09/25 08:01:45;;;;;;;12.55;10.48;;;;;;;19.89;61.53;100397.16;4991682;28;20046;-77
2022/09/25 08:04:31;;;;;;;15.05;11.50;;;;;;;19.55;62.30;100391.06;4994190;28;20042;-79
2022/09/25 08:07:15;;;;;;;12.32;9.90;;;;;;;19.42;62.71;100414.53;4992020;28;20050;-81
2022/09/25 08:10:00;;;;;;;17.52;11.73;;;;;;;19.56;62.69;100411.13;4993678;28;20039;-77
2022/09/25 08:12:45;;;;;;;19.05;11.85;;;;;;;19.52;62.96;100408.34;4988040;28;20042;-78
2022/09/25 08:15:30;;;;;;;12.43;10.88;;;;;;;19.47;63.26;100405.16;4989358;28;20034;-77
2022/09/25 08:18:15;;;;;;;19.27;11.93;;;;;;;19.40;63.09;100396.81;4983821;28;21454;-78
2022/09/25 08:21:03;;;;;;;14.90;10.65;;;;;;;19.35;62.31;100402.69;4993041;28;20054;-78
2022/09/25 08:23:51;;;;;;;12.82;10.48;;;;;;;19.57;61.60;100396.16;4993099;28;20050;-79
2022/09/25 08:26:35;;;;;;;13.52;10.63;;;;;;;19.66;62.05;100404.88;4997471;28;20054;-77
2022/09/25 08:29:20;;;;;;;16.77;11.95;;;;;;;19.55;61.96;100410.38;4994751;28;20046;-79
2022/09/25 08:32:05;;;;;;;13.93;10.40;;;;;;;19.77;61.09;100410.47;4996985;28;20046;-76
2022/09/25 08:34:49;;;;;;;16.02;10.40;;;;;;;19.99;60.75;100415.75;4996890;28;20054;-77
2022/09/25 08:37:40;;;;;;;12.25;10.40;;;;;;;19.79;60.97;100413.66;4996536;28;20046;-78
2022/09/25 08:40:29;;;;;;;12.98;10.85;;;;;;;19.78;60.92;100403.78;4997656;28;20042;-77
2022/09/25 08:43:20;;;;;;;12.80;10.20;;;;;;;20.17;60.50;100399.28;4977044;28;20046;-77
2022/09/25 08:49:25;;;;;;;13.57;10.25;;;;;;;20.54;58.98;100395.50;4995165;28;20042;-78
2022/09/25 08:52:19;;;;;;;11.88;9.38;;;;;;;20.63;57.95;100398.69;4989836;28;20051;-77
2022/09/25 08:56:13;;;;;;;14.02;9.35;;;;;;;20.72;57.96;100405.44;4989803;28;20038;-77
2022/09/25 08:58:33;;;;;;;12.70;9.15;;;;;;;20.87;57.69;100396.00;4987419;28;20038;-77
2022/09/25 09:01:22;;;;;;;14.50;9.82;;;;;;;20.82;58.46;100385.31;4993081;28;20054;-78
2022/09/25 09:04:20;;;;;;;10.75;8.90;;;;;;;21.52;55.70;100388.53;4994778;28;20049;-77
2022/09/25 09:07:12;;;;;;;13.70;10.20;;;;;;;21.55;54.76;100387.72;4989460;28;20043;-77
2022/09/25 09:10:14;;;;;;;12.45;9.63;;;;;;;22.41;52.55;100394.59;4995244;28;20050;-76
2022/09/25 09:13:04;;;;;;;10.68;8.70;;;;;;;22.55;51.41;100392.53;4998227;28;20046;-76
2022/09/25 09:15:55;;;;;;;12.15;8.75;;;;;;;23.29;49.26;100382.19;4998141;28;20046;-79
2022/09/25 09:18:41;;;;;;;11.13;9.18;;;;;;;23.44;48.58;100400.28;4997797;28;20042;-79
2022/09/25 09:21:33;;;;;;;8.00;7.18;;;;;;;23.45;47.86;100396.34;5001224;28;20494;-81
2022/09/25 09:24:33;;;;;;;12.27;8.25;;;;;;;23.28;48.32;100400.00;4998791;28;20054;-79
2022/09/25 09:27:39;;;;;;;10.02;8.15;;;;;;;23.44;47.07;100389.16;5008362;28;20421;-80
2022/09/25 09:30:43;;;;;;;8.50;7.07;;;;;;;22.72;48.38;100390.13;4992481;28;20135;-80
2022/09/25 09:33:48;;;;;;;11.90;9.00;;;;;;;22.36;50.46;100390.28;5001739;28;20049;-79
2022/09/25 09:36:51;;;;;;;11.53;8.00;;;;;;;23.11;48.67;100390.63;5013191;28;20039;-80
2022/09/25 09:39:47;;;;;;;13.70;9.38;;;;;;;23.46;48.52;100389.59;4997846;28;20042;-79
2022/09/25 09:42:44;;;;;;;11.30;8.40;;;;;;;23.17;47.62;100397.31;4996955;28;20045;-80
2022/09/25 09:45:51;;;;;;;12.63;8.80;;;;;;;23.21;47.99;100409.16;5005577;28;20042;-80
2022/09/25 09:48:59;;;;;;;10.05;7.60;;;;;;;23.96;46.21;100405.75;4990359;28;20049;-78
2022/09/25 09:51:48;;;;;;;9.77;8.15;;;;;;;23.78;46.04;100392.03;4990257;28;20432;-78
2022/09/25 09:54:41;;;;;;;12.95;8.85;;;;;;;23.55;46.92;100389.09;5014194;28;20045;-79
2022/09/25 09:57:31;;;;;;;9.80;8.70;;;;;;;23.62;46.95;100395.38;4992944;28;20043;-80
2022/09/25 10:00:19;;;;;;;11.30;8.38;;;;;;;23.42;47.49;100402.66;4988249;28;20280;-79
2022/09/25 10:03:12;;;;;;;9.63;6.88;;;;;;;23.24;48.89;100397.28;4992603;28;20061;-78
2022/09/25 10:06:04;;;;;;;10.05;8.88;;;;;;;22.25;51.21;100397.84;4986199;28;20058;-78
2022/09/25 10:08:49;;;;;;;14.05;9.82;;;;;;;22.03;51.38;100407.44;4990310;28;20518;-78
2022/09/25 10:11:35;;;;;;;11.65;9.63;;;;;;;22.37;50.73;100402.16;4986130;28;20517;-78
2022/09/25 10:14:24;;;;;;;12.20;9.07;;;;;;;22.28;50.24;100401.78;4987031;28;20049;-76
2022/09/25 10:17:10;;;;;;;12.15;7.72;;;;;;;22.09;49.95;100405.84;4985773;28;20042;-81
2022/09/25 10:20:03;;;;;;;7.88;6.82;;;;;;;22.59;48.80;100403.63;4982965;28;20049;-80
2022/09/25 10:22:55;;;;;;;8.73;6.60;;;;;;;22.87;47.42;100397.16;4989038;28;20041;-78
2022/09/25 10:25:39;;;;;;;11.50;9.13;;;;;;;23.95;46.25;100388.28;4987450;28;20481;-78
2022/09/25 10:28:33;;;;;;;13.00;9.27;;;;;;;25.14;44.13;100387.13;4988972;28;20050;-76
2022/09/25 10:31:19;;;;;;;10.90;8.95;;;;;;;24.89;44.21;100392.28;5003315;28;20525;-78
2022/09/25 10:34:19;;;;;;;11.73;8.35;;;;;;;24.32;45.14;100381.13;4984236;28;20043;-77
2022/09/25 10:37:19;;;;;;;17.17;9.05;;;;;;;24.27;45.61;100374.84;4982134;28;20487;-80
2022/09/25 10:40:06;;;;;;;10.30;9.13;;;;;;;25.52;43.09;100373.72;4984304;28;20035;-77
2022/09/25 10:43:12;;;;;;;11.30;9.32;;;;;;;27.84;39.06;100376.53;4993672;28;20085;-79
2022/09/25 10:46:14;;;;;;;17.83;8.52;;;;;;;27.04;38.70;100380.97;4988326;28;20054;-79
2022/09/25 10:52:21;;;;;;;9.57;6.72;;;;;;;27.07;38.33;100380.13;4984918;28;20045;-77
2022/09/25 10:55:24;;;;;;;10.88;7.85;;;;;;;26.88;39.61;100367.00;4992934;28;20064;-80
2022/09/25 10:58:19;;;;;;;11.38;9.48;;;;;;;29.36;34.07;100365.53;4984495;28;20057;-78
2022/09/25 11:01:05;;;;;;;12.88;7.38;;;;;;;27.40;36.87;100369.69;4991796;28;20057;-78
2022/09/25 11:03:54;;;;;;;8.88;7.55;;;;;;;28.01;36.01;100370.44;4991814;28;20054;-78
2022/09/25 11:06:51;;;;;;;10.13;7.80;;;;;;;27.37;37.71;100370.59;4991987;28;20114;-78
2022/09/25 11:09:43;;;;;;;10.68;8.32;;;;;;;29.04;34.90;100360.97;4983686;28;20046;-77
2022/09/25 11:12:28;;;;;;;8.30;7.07;;;;;;;28.43;34.21;100357.25;4987106;28;20046;-77
2022/09/25 11:15:19;;;;;;;9.45;7.65;;;;;;;37.08;22.94;100369.91;4989369;28;20050;-76
2022/09/25 11:18:05;;;;;;;10.05;7.75;;;;;;;39.78;19.24;100373.94;4988682;28;20539;-80
2022/09/25 11:21:01;;;;;;;8.15;7.28;;;;;;;35.87;23.81;100376.03;4989572;28;20039;-78
2022/09/25 11:24:05;;;;;;;7.88;7.07;;;;;;;33.67;26.05;100374.34;4991627;28;20421;-79
2022/09/25 11:27:05;;;;;;;8.82;7.93;;;;;;;31.74;29.50;100374.75;4986841;28;20054;-79
2022/09/25 11:30:05;;;;;;;9.65;7.07;;;;;;;30.20;31.36;100367.31;4973034;28;20054;-78
2022/09/25 11:33:24;;;;;;;10.18;7.60;;;;;;;28.49;34.38;100368.69;4973255;28;20053;-78
2022/09/25 11:36:19;;;;;;;8.70;7.25;;;;;;;26.21;38.74;100360.91;4972441;28;20038;-78
2022/09/25 11:42:45;;;;;;;9.13;7.65;;;;;;;25.01;42.92;100350.75;5006677;28;20045;-82
2022/09/25 11:45:40;;;;;;;11.80;9.73;;;;;;;24.95;42.78;100351.63;5027127;28;20044;-80
2022/09/25 11:48:51;;;;;;;8.68;7.75;;;;;;;24.58;44.14;100355.38;5017751;28;20524;-82
2022/09/25 11:52:04;;;;;;;10.70;7.85;;;;;;;24.12;44.28;100344.84;5011965;28;20065;-82
2022/09/25 11:55:11;;;;;;;9.95;8.30;;;;;;;23.69;45.03;100344.53;5004644;28;20045;-82
2022/09/25 11:58:17;;;;;;;8.98;8.02;;;;;;;23.83;44.92;100336.03;5024635;28;20053;-82
2022/09/25 12:01:02;;;;;;;9.63;6.60;;;;;;;23.71;45.04;100340.16;5017911;28;20048;-83
2022/09/25 12:04:20;;;;;;;9.73;6.72;;;;;;;23.96;44.63;100336.31;5013578;28;20405;-82
2022/09/25 12:07:28;;;;;;;8.18;7.03;;;;;;;24.19;43.85;100328.09;5022314;28;20512;-82
2022/09/25 12:10:26;;;;;;;16.23;6.70;;;;;;;24.97;41.62;100326.97;5030355;28;20049;-83
2022/09/25 12:13:13;;;;;;;7.45;6.05;;;;;;;24.37;42.71;100322.31;5013469;28;20120;-83
2022/09/25 12:16:27;;;;;;;10.23;6.13;;;;;;;24.15;42.16;100319.00;5015521;28;20111;-84
2022/09/25 12:19:16;;;;;;;8.77;6.57;;;;;;;23.51;44.60;100319.75;5015782;28;20406;-82
2022/09/25 12:22:03;;;;;;;7.68;6.03;;;;;;;23.85;43.71;100309.44;5011990;28;20544;-83
2022/09/25 12:24:55;;;;;;;8.45;6.00;;;;;;;23.62;43.13;100308.53;5013071;28;20049;-83
2022/09/25 12:28:00;;;;;;;6.60;5.75;;;;;;;24.13;42.61;100307.50;5020201;28;20065;-83
2022/09/25 12:31:07;;;;;;;8.40;6.20;;;;;;;24.98;40.67;100295.16;5019101;28;20060;-84
2022/09/25 12:33:59;;;;;;;6.65;5.22;;;;;;;24.66;41.19;100290.09;5018895;28;20049;-83
2022/09/25 12:36:50;;;;;;;7.00;5.55;;;;;;;24.20;42.11;100287.97;5023061;28;20053;-83
2022/09/25 12:39:48;;;;;;;7.63;6.22;;;;;;;23.74;43.88;100281.00;5013729;28;20077;-83
2022/09/25 12:42:46;;;;;;;9.60;6.47;;;;;;;23.87;44.80;100273.69;5028145;28;20049;-88
2022/09/25 12:45:38;;;;;;;10.38;8.18;;;;;;;23.76;44.75;100273.06;5013220;28;20189;-85
2022/09/25 12:48:42;;;;;;;11.10;8.00;;;;;;;23.86;44.18;100271.34;5004911;28;20035;-84
2022/09/25 12:51:36;;;;;;;8.40;7.50;;;;;;;24.35;44.22;100280.22;5029539;28;20053;-84
2022/09/25 12:54:31;;;;;;;10.83;8.50;;;;;;;24.40;44.21;100272.22;5014385;28;20069;-84
2022/09/25 12:57:19;;;;;;;;;;;;;;;24.62;44.25;100284.59;5013360;28;20038;-83
2022/09/25 13:00:16;;;;;;;11.95;8.43;;;;;;;25.13;43.35;100279.78;5017169;28;19917;-84
2022/09/25 13:03:10;;;;;;;12.38;9.25;;;;;;;26.20;40.97;100278.47;5012472;28;20046;-83
2022/09/25 13:06:21;;;;;;;13.80;7.50;;;;;;;26.18;40.31;100281.69;5018704;28;20049;-83
2022/09/25 13:09:16;;;;;;;12.98;8.48;;;;;;;25.82;40.30;100278.09;5011464;28;20039;-83
2022/09/25 13:12:34;;;;;;;12.13;8.80;;;;;;;24.34;43.99;100273.09;5015912;28;20046;-83
2022/09/25 13:15:28;;;;;;;13.55;8.20;;;;;;;23.94;44.80;100269.25;5023379;28;20037;-84
2022/09/25 13:18:21;;;;;;;8.20;7.23;;;;;;;24.47;43.49;100268.53;5014682;28;20046;-83
2022/09/25 13:21:30;;;;;;;12.02;8.18;;;;;;;28.53;35.54;100270.63;5008916;28;20045;-81
2022/09/25 13:24:17;;;;;;;9.07;7.13;;;;;;;25.98;39.10;100273.38;5010850;28;20057;-83
2022/09/25 13:27:03;;;;;;;10.45;6.90;;;;;;;24.56;41.90;100268.78;5012176;28;20061;-83
2022/09/25 13:29:59;;;;;;;11.65;8.05;;;;;;;23.80;44.08;100271.03;5015805;28;20049;-82
2022/09/25 13:32:49;;;;;;;8.35;7.07;;;;;;;23.44;45.20;100269.81;5035892;28;20045;-84
2022/09/25 13:35:33;;;;;;;8.98;6.32;;;;;;;23.19;45.99;100269.31;5012210;28;20045;-83